Portada
METAR-TAF:

METAR-TAF

Aeroports :

La Ceiba, Hondures

latitud: 15-44N, longitud: 086-52W, altitud: 3 m

Observació

L'informe es va fer fa 41 minuts, a les 04:00 UTC
Vent calma
Temperatura 21°C
Humitat 83%
Pressió 1015 hPa
Visibilitat 10 km o més
Escasses núvols a una alçada de 3000 ft

METAR: MHLC 060400Z 00000KT 9999 FEW030 21/18 Q1015 A2997 NOSIG

Hora: 22:41 (04:41 UTC)

Pronòstic

L'informe es va fer fa 5 hores i 41 minuts, a les 23:00 UTC
Pronòstic vàlid del 06 a les 00 UTC al 06 a les 24 UTC
Vent 3 kt amb direcció variable
Visibilitat 10 km o més
Núvols disperses a una alçada de 2400 ft
Núvols disperses a una alçada de 8000 ft
Evolucionant progressivament
l' 06 a les 16 UTC al 06 a les 18 UTC
Vent 10 kt del Nord-Est
Visibilitat: 8000 m
Núvols disperses a una alçada de 3200 ft, Cumulus congestus.
xàfecs en les proximitats

TAF: MHLC 052300Z 0600/0624 VRB03KT 9999 SCT024 SCT080 TX30/0619Z TN22/0612Z BECMG 0616/0618 05010KT 8000 VCSH SCT032TCU

Observacions i pronòstics meteorològics de més de 4000 aeroports (METAR i TAF).

Les estacions disponibles són els punts grocs i vermells al mapa.

Posi el ratolí al punt desitjat per veure el nom de l'estació.

Feu clic per veure les observacions i els pronòstics meteorològics.

Per canviar el mapa: feu clic els botons verds amb una creu de color negre per apropar; al botó verd amb un guió per allunyar la imatge; o en les fletxes verdes per a mapes adjacents.


METAR-TAF: